Time;durP1;ratioP1;P1;durP2;ratioP2;P2;SDS_P1;SDS_P2;PMS_P1;PMS_P2;Temp;Humidity;BMP_temperature;BMP_pressure;BME280_temperature;BME280_humidity;BME280_pressure;Samples;Min_cycle;Max_cycle;Signal;HPM_P1;HPM_P2
2022/07/09 00:01:00;;;;;;;21.23;16.67;;;;;;;15.65;92.50;102781.22;5025240;28;20124;-66
2022/07/09 00:03:25;;;;;;;24.08;18.05;;;;;;;15.60;92.44;102765.22;5024861;28;20516;-67
2022/07/09 00:05:50;;;;;;;24.88;18.27;;;;;;;15.57;93.24;102768.44;5025213;28;20029;-66
2022/07/09 00:08:15;;;;;;;30.75;21.23;;;;;;;15.57;93.46;102768.44;5025245;28;20081;-67
2022/07/09 00:10:41;;;;;;;29.05;19.65;;;;;;;15.56;93.54;102773.13;5025591;28;20420;-66
2022/07/09 00:13:06;;;;;;;24.13;18.20;;;;;;;15.59;93.53;102771.84;5024817;28;20029;-66
2022/07/09 00:15:32;;;;;;;23.83;17.77;;;;;;;15.59;92.98;102771.84;5025184;28;20029;-66
2022/07/09 00:17:57;;;;;;;28.13;19.90;;;;;;;15.57;93.12;102768.44;5026083;28;20463;-67
2022/07/09 00:20:23;;;;;;;31.05;20.27;;;;;;;15.55;92.79;102771.41;5024757;28;20033;-67
2022/07/09 00:22:48;;;;;;;27.48;20.08;;;;;;;15.54;93.16;102780.78;5024871;28;20029;-67
2022/07/09 00:25:13;;;;;;;29.15;21.35;;;;;;;15.55;93.62;102773.31;5024165;28;20025;-66
2022/07/09 00:27:39;;;;;;;25.10;19.15;;;;;;;15.49;93.27;102774.19;5023345;28;20095;-67
2022/07/09 00:30:04;;;;;;;28.02;20.40;;;;;;;15.46;93.48;102772.72;5022356;28;20506;-67
2022/07/09 00:32:30;;;;;;;30.27;21.02;;;;;;;15.44;93.43;102769.31;5025218;28;20112;-66
2022/07/09 00:34:55;;;;;;;29.52;20.17;;;;;;;15.40;93.30;102769.94;5023616;28;20579;-67
2022/07/09 00:37:20;;;;;;;25.55;19.05;;;;;;;15.38;93.63;102770.19;5025171;28;20026;-67
2022/07/09 00:39:45;;;;;;;26.45;18.13;;;;;;;15.40;93.03;102768.03;5021814;28;20137;-67
2022/07/09 00:42:11;;;;;;;22.52;17.45;;;;;;;15.35;92.90;102770.59;5024288;28;20431;-66
2022/07/09 00:44:37;;;;;;;24.95;17.60;;;;;;;15.28;92.68;102769.78;5023982;28;20026;-67
2022/07/09 00:47:04;;;;;;;28.55;17.60;;;;;;;15.25;92.93;102770.19;5023599;28;20061;-66
2022/07/09 00:49:31;;;;;;;28.70;19.15;;;;;;;15.19;93.33;102766.38;5023592;28;20029;-67
2022/07/09 00:51:57;;;;;;;25.02;17.13;;;;;;;15.17;93.74;102762.13;5022836;28;20053;-66
2022/07/09 00:54:23;;;;;;;28.80;18.95;;;;;;;15.14;93.85;102768.94;5025433;28;20021;-67
2022/07/09 00:56:49;;;;;;;28.95;19.00;;;;;;;15.11;93.41;102768.53;5024309;28;20014;-67
2022/07/09 00:59:15;;;;;;;26.58;18.60;;;;;;;15.09;92.96;102770.63;5023774;28;20468;-66
2022/07/09 01:01:41;;;;;;;26.77;19.48;;;;;;;15.03;93.16;102762.13;5024957;28;20500;-66
2022/07/09 01:04:06;;;;;;;30.23;20.77;;;;;;;15.03;93.92;102770.44;5024532;28;20140;-66
2022/07/09 01:06:34;;;;;;;31.63;20.55;;;;;;;15.01;93.70;102766.19;5024559;28;20381;-66
2022/07/09 01:09:00;;;;;;;29.80;21.48;;;;;;;14.99;94.27;102766.38;5020524;28;20013;-67
2022/07/09 01:11:25;;;;;;;25.02;18.25;;;;;;;15.00;94.46;102757.03;5020568;28;20041;-67
2022/07/09 01:13:51;;;;;;;34.30;24.20;;;;;;;14.98;94.82;102763.84;5023532;28;20068;-67
2022/07/09 01:16:16;;;;;;;31.23;21.83;;;;;;;14.97;94.85;102756.59;5020499;28;20442;-67
2022/07/09 01:18:46;;;;;;;32.55;24.25;;;;;;;14.95;95.25;102753.19;5020351;28;20107;-66
2022/07/09 01:21:15;;;;;;;33.97;23.45;;;;;;;14.93;95.58;102747.88;5022981;28;20514;-67
2022/07/09 01:23:41;;;;;;;34.75;22.65;;;;;;;14.94;95.57;102738.50;5022460;28;20056;-67
2022/07/09 01:26:07;;;;;;;36.95;22.73;;;;;;;14.91;95.46;102736.19;5023493;28;20049;-67
2022/07/09 01:28:32;;;;;;;30.98;22.73;;;;;;;14.92;95.38;102737.88;5023253;28;20041;-67
2022/07/09 01:30:58;;;;;;;30.58;21.75;;;;;;;14.96;95.36;102741.06;5023195;28;20025;-67
2022/07/09 01:33:24;;;;;;;34.53;22.90;;;;;;;14.97;94.76;102737.22;5023217;28;20037;-67
2022/07/09 01:35:49;;;;;;;24.40;16.83;;;;;;;14.87;93.36;102740.44;5023214;28;20500;-67
2022/07/09 01:38:14;;;;;;;23.90;18.08;;;;;;;14.78;93.25;102747.22;5024930;28;20021;-67
2022/07/09 01:40:40;;;;;;;26.70;18.88;;;;;;;14.66;93.50;102735.13;5025469;28;20025;-67
2022/07/09 01:43:06;;;;;;;26.67;19.15;;;;;;;14.59;94.69;102734.25;5026625;28;20091;-67
2022/07/09 01:45:31;;;;;;;25.95;19.42;;;;;;;14.54;94.59;102727.41;5027272;28;20028;-67
2022/07/09 01:47:57;;;;;;;32.38;21.85;;;;;;;14.53;95.02;102728.50;5027321;28;20033;-67
2022/07/09 01:50:22;;;;;;;34.22;22.58;;;;;;;14.52;95.11;102720.41;5026461;28;20026;-67
2022/07/09 01:52:47;;;;;;;33.75;22.38;;;;;;;14.48;95.33;102722.75;5027290;28;20060;-67
2022/07/09 01:55:12;;;;;;;32.33;23.50;;;;;;;14.49;95.51;102727.19;5028236;28;20021;-67
2022/07/09 01:57:38;;;;;;;31.20;22.13;;;;;;;14.50;95.18;102723.41;5027264;28;20030;-67
2022/07/09 02:00:04;;;;;;;33.13;22.80;;;;;;;14.52;95.96;102725.94;5027066;28;20053;-67
2022/07/09 02:02:30;;;;;;;37.20;25.00;;;;;;;14.52;95.83;102729.56;5028020;28;20396;-66
2022/07/09 02:04:55;;;;;;;31.55;22.35;;;;;;;14.50;95.95;102717.03;5026969;28;20033;-67
2022/07/09 02:07:20;;;;;;;26.83;17.38;;;;;;;14.47;95.42;102720.16;5026477;28;20080;-67
2022/07/09 02:09:45;;;;;;;21.67;15.88;;;;;;;14.45;95.56;102719.53;5028239;28;20021;-67
2022/07/09 02:12:11;;;;;;;30.13;20.27;;;;;;;14.47;96.10;102721.03;5021862;28;20433;-67
2022/07/09 02:14:36;;;;;;;27.98;19.80;;;;;;;14.43;95.61;102727.16;5021882;28;20033;-67
2022/07/09 02:17:02;;;;;;;24.88;17.23;;;;;;;14.41;95.17;102721.84;5026127;28;20033;-67
2022/07/09 02:19:27;;;;;;;25.45;17.92;;;;;;;14.41;94.94;102721.84;5027870;28;20036;-67
2022/07/09 02:21:52;;;;;;;31.15;20.63;;;;;;;14.42;94.97;102719.94;5027233;28;20018;-67
2022/07/09 02:24:17;;;;;;;31.05;22.13;;;;;;;14.45;94.92;102720.38;5025594;28;20083;-67
2022/07/09 02:26:43;;;;;;;28.77;19.98;;;;;;;14.41;94.76;102718.25;5017918;28;20522;-67
2022/07/09 02:29:08;;;;;;;21.55;14.80;;;;;;;14.31;94.50;102710.38;5025063;28;20029;-67
2022/07/09 02:31:33;;;;;;;21.70;16.40;;;;;;;14.24;94.88;102717.78;5026960;28;20064;-67
2022/07/09 02:33:59;;;;;;;23.92;16.95;;;;;;;14.19;95.08;102707.38;5027501;28;20429;-67
2022/07/09 02:36:24;;;;;;;23.60;17.23;;;;;;;14.20;94.93;102705.47;5026736;28;20057;-67
2022/07/09 02:38:49;;;;;;;26.33;19.80;;;;;;;14.11;94.90;102702.03;5027853;28;20025;-67
2022/07/09 02:41:15;;;;;;;33.33;22.23;;;;;;;14.07;95.23;102699.91;5025732;28;20040;-68
2022/07/09 02:43:43;;;;;;;33.97;21.80;;;;;;;14.05;95.38;102697.34;5025720;28;20033;-67
2022/07/09 02:46:11;;;;;;;;;;;;;;;14.21;93.85;102690.56;5022789;28;20038;-67
2022/07/09 02:48:36;;;;;;;;;;;;;;;14.23;93.01;102693.97;5008040;28;19952;-67
2022/07/09 02:51:02;;;;;;;36.75;23.80;;;;;;;14.12;95.47;102691.81;5018292;28;19917;-66
2022/07/09 02:53:27;;;;;;;43.58;24.58;;;;;;;14.10;96.12;102678.22;5024677;28;20132;-67
2022/07/09 02:55:52;;;;;;;36.97;24.88;;;;;;;14.15;96.16;102688.66;5026204;28;20044;-67
2022/07/09 02:58:18;;;;;;;34.85;23.95;;;;;;;14.18;95.67;102686.31;5023308;28;20025;-67
2022/07/09 03:00:43;;;;;;;33.63;23.20;;;;;;;14.14;94.66;102681.41;5026173;28;20496;-66
2022/07/09 03:03:09;;;;;;;30.58;20.35;;;;;;;14.08;94.70;102685.84;5026546;28;20405;-67
2022/07/09 03:05:34;;;;;;;31.58;20.58;;;;;;;13.98;94.70;102690.94;5026205;28;20143;-67
2022/07/09 03:08:00;;;;;;;32.58;21.27;;;;;;;13.92;94.96;102687.09;5026325;28;20034;-67
2022/07/09 03:10:25;;;;;;;30.50;21.30;;;;;;;13.92;95.48;102692.63;5025924;28;20040;-67
2022/07/09 03:12:51;;;;;;;30.00;21.63;;;;;;;13.88;95.46;102688.56;5026180;28;20029;-67
2022/07/09 03:15:17;;;;;;;32.75;21.60;;;;;;;13.85;95.65;102691.75;5026020;28;20663;-67
2022/07/09 03:17:45;;;;;;;32.20;21.55;;;;;;;13.81;96.22;102684.94;5026304;28;20022;-67
2022/07/09 03:20:11;;;;;;;;;;;;;;;13.96;94.49;102687.53;5025375;28;20048;-67
2022/07/09 03:22:37;;;;;;;42.00;24.63;;;;;;;13.83;95.98;102693.00;5025618;28;20371;-67
2022/07/09 03:25:03;;;;;;;41.72;27.05;;;;;;;13.82;96.20;102683.03;5025405;28;20092;-67
2022/07/09 03:27:29;;;;;;;35.42;23.77;;;;;;;13.85;96.36;102690.91;5025542;28;20037;-67
2022/07/09 03:29:54;;;;;;;34.40;23.65;;;;;;;13.86;95.96;102692.63;5024595;28;20025;-67
2022/07/09 03:32:19;;;;;;;34.50;22.00;;;;;;;13.87;95.36;102695.16;5024717;28;20030;-67
2022/07/09 03:34:45;;;;;;;39.10;20.33;;;;;;;13.77;95.09;102695.53;5023807;28;20337;-68
2022/07/09 03:37:10;;;;;;;31.60;20.27;;;;;;;13.74;95.67;102695.97;5025716;28;20039;-67
2022/07/09 03:39:35;;;;;;;33.38;21.23;;;;;;;13.66;95.86;102689.78;5024050;28;20692;-67
2022/07/09 03:42:01;;;;;;;32.47;22.30;;;;;;;13.60;95.82;102687.84;5023130;28;20080;-67
2022/07/09 03:44:26;;;;;;;36.00;22.02;;;;;;;13.55;96.34;102682.94;5025276;28;20057;-67
2022/07/09 03:46:52;;;;;;;36.08;23.60;;;;;;;13.55;96.41;102682.09;5024373;28;20040;-68
2022/07/09 03:49:17;;;;;;;38.67;24.30;;;;;;;13.55;97.05;102688.47;5025764;28;20476;-67
2022/07/09 03:51:43;;;;;;;37.40;24.70;;;;;;;13.61;96.91;102689.53;5021529;28;20457;-66
2022/07/09 03:54:09;;;;;;;38.42;24.33;;;;;;;13.67;97.19;102688.72;5023846;28;20064;-67
2022/07/09 03:56:34;;;;;;;38.47;24.17;;;;;;;13.66;97.41;102687.00;5025001;28;20026;-67
2022/07/09 03:59:00;;;;;;;35.95;24.38;;;;;;;13.66;97.26;102682.34;5022936;28;20080;-67
2022/07/09 04:01:25;;;;;;;33.25;23.25;;;;;;;13.68;97.16;102679.38;5025366;28;20104;-67
2022/07/09 04:03:50;;;;;;;40.88;23.75;;;;;;;13.73;97.23;102687.88;5025744;28;20052;-67
2022/07/09 04:06:16;;;;;;;33.47;22.13;;;;;;;13.76;97.03;102685.56;5024936;28;20076;-67
2022/07/09 04:08:41;;;;;;;31.13;20.13;;;;;;;13.73;96.26;102694.25;5025330;28;20029;-67
2022/07/09 04:11:06;;;;;;;31.05;21.17;;;;;;;13.74;96.24;102689.59;5022235;28;20014;-68
2022/07/09 04:13:32;;;;;;;33.30;20.20;;;;;;;13.73;96.29;102679.59;5025096;28;20076;-67
2022/07/09 04:15:57;;;;;;;35.67;20.83;;;;;;;13.73;96.78;102674.06;5024960;28;20021;-67
2022/07/09 04:18:23;;;;;;;33.13;20.23;;;;;;;13.73;97.14;102677.69;5013937;28;20122;-67
2022/07/09 04:20:48;;;;;;;31.33;21.98;;;;;;;13.72;96.88;102669.63;5005932;28;20022;-67
2022/07/09 04:23:13;;;;;;;41.90;25.85;;;;;;;13.72;97.03;102672.38;5006212;28;20071;-67
2022/07/09 04:25:38;;;;;;;38.40;23.88;;;;;;;13.76;97.47;102671.75;5019478;28;20500;-67
2022/07/09 04:28:05;;;;;;;41.97;24.55;;;;;;;13.78;97.64;102677.06;5023329;28;20033;-67
2022/07/09 04:30:30;;;;;;;30.95;21.80;;;;;;;13.76;97.36;102670.91;5024063;28;20017;-67
2022/07/09 04:32:55;;;;;;;30.23;21.38;;;;;;;13.75;96.16;102671.97;5024675;28;20029;-67
2022/07/09 04:35:21;;;;;;;32.17;22.02;;;;;;;13.76;96.19;102674.50;5023800;28;20033;-67
2022/07/09 04:37:46;;;;;;;35.03;22.88;;;;;;;13.72;96.24;102675.97;5025301;28;20025;-67
2022/07/09 04:40:12;;;;;;;33.95;23.38;;;;;;;13.79;97.02;102681.56;5025299;28;20726;-67
2022/07/09 04:42:37;;;;;;;43.88;27.75;;;;;;;13.80;97.14;102685.16;5023279;28;20030;-67
2022/07/09 04:45:03;;;;;;;41.40;26.88;;;;;;;13.83;97.68;102679.19;5022327;28;20092;-67
2022/07/09 04:47:28;;;;;;;44.17;27.42;;;;;;;13.87;98.61;102692.41;5022330;28;20033;-67
2022/07/09 04:49:54;;;;;;;43.53;27.58;;;;;;;13.98;98.91;102682.66;5024823;28;20120;-67
2022/07/09 04:52:19;;;;;;;44.85;28.75;;;;;;;14.11;99.07;102679.06;5024427;28;20484;-67
2022/07/09 04:54:45;;;;;;;50.67;28.92;;;;;;;14.26;99.66;102680.59;5024648;28;20136;-67
2022/07/09 04:57:11;;;;;;;49.75;31.25;;;;;;;14.39;99.32;102667.84;5021737;28;20035;-67
2022/07/09 04:59:37;;;;;;;55.47;33.15;;;;;;;14.51;99.73;102663.41;5023711;28;20025;-67
2022/07/09 05:02:02;;;;;;;58.30;34.65;;;;;;;14.66;99.66;102663.22;5024252;28;20060;-67
2022/07/09 05:04:28;;;;;;;59.85;35.50;;;;;;;14.79;99.87;102654.88;5023769;28;20079;-67
2022/07/09 05:06:53;;;;;;;59.45;36.50;;;;;;;14.92;99.83;102665.09;5024241;28;20083;-67
2022/07/09 05:09:19;;;;;;;58.20;34.75;;;;;;;14.98;99.60;102659.53;5024132;28;20044;-67
2022/07/09 05:11:44;;;;;;;58.03;34.58;;;;;;;15.05;99.57;102668.69;5023736;28;20039;-67
2022/07/09 05:14:09;;;;;;;48.55;33.17;;;;;;;15.15;99.79;102668.22;5022860;28;20060;-67
2022/07/09 05:16:35;;;;;;;51.97;32.35;;;;;;;15.24;99.38;102657.75;5021871;28;20441;-67
2022/07/09 05:19:00;;;;;;;52.20;34.22;;;;;;;15.34;99.63;102660.94;5024091;28;20044;-67
2022/07/09 05:21:25;;;;;;;46.83;32.05;;;;;;;15.40;99.38;102651.75;5023797;28;20022;-67
2022/07/09 05:23:51;;;;;;;51.78;33.83;;;;;;;15.44;98.70;102658.53;5024718;28;20552;-68
2022/07/09 05:26:16;;;;;;;48.70;33.28;;;;;;;15.49;98.79;102655.97;5021505;28;20026;-67
2022/07/09 05:28:41;;;;;;;47.70;31.65;;;;;;;15.60;98.35;102661.88;5022948;28;20453;-67
2022/07/09 05:31:07;;;;;;;50.00;32.72;;;;;;;15.69;97.73;102661.44;5022855;28;20074;-67
2022/07/09 05:33:32;;;;;;;49.67;32.60;;;;;;;15.76;97.45;102655.88;5024755;28;20026;-67
2022/07/09 05:35:57;;;;;;;46.50;32.65;;;;;;;15.82;97.46;102653.09;5024028;28;20030;-67
2022/07/09 05:38:23;;;;;;;46.42;30.20;;;;;;;15.89;96.65;102664.13;5023058;28;20029;-67
2022/07/09 05:40:48;;;;;;;44.58;32.22;;;;;;;16.03;97.17;102657.44;5024679;28;20647;-67
2022/07/09 05:43:14;;;;;;;45.90;33.10;;;;;;;16.12;97.22;102659.91;5023531;28;20029;-67
2022/07/09 05:45:39;;;;;;;47.40;31.73;;;;;;;16.23;97.36;102653.69;5020800;28;20032;-67
2022/07/09 05:48:04;;;;;;;46.27;32.67;;;;;;;16.31;96.29;102653.38;5024196;28;20515;-66
2022/07/09 05:50:30;;;;;;;50.78;35.35;;;;;;;16.38;96.41;102654.19;5022460;28;20295;-67
2022/07/09 05:52:55;;;;;;;55.25;38.10;;;;;;;16.42;95.06;102649.88;5022883;28;20034;-67
2022/07/09 05:55:20;;;;;;;56.78;39.45;;;;;;;16.51;95.47;102642.97;5021776;28;20053;-67
2022/07/09 05:57:46;;;;;;;55.35;38.38;;;;;;;16.57;94.77;102649.53;5023347;28;20512;-67
2022/07/09 06:00:11;;;;;;;56.72;39.13;;;;;;;16.58;94.54;102649.34;5021336;28;20155;-67
2022/07/09 06:02:37;;;;;;;56.50;39.78;;;;;;;16.59;94.62;102650.19;5020556;28;20041;-66
2022/07/09 06:05:03;;;;;;;54.40;39.15;;;;;;;16.62;94.45;102658.03;5023608;28;20025;-66
2022/07/09 06:07:28;;;;;;;57.63;41.63;;;;;;;16.72;95.47;102663.94;5021230;28;20037;-67
2022/07/09 06:09:53;;;;;;;61.22;41.30;;;;;;;16.81;94.20;102659.81;5020559;28;20053;-67
2022/07/09 06:12:18;;;;;;;61.55;41.88;;;;;;;16.90;93.50;102668.69;5023607;28;20640;-67
2022/07/09 06:14:44;;;;;;;61.17;42.58;;;;;;;16.98;93.14;102670.31;5024010;28;20029;-66
2022/07/09 06:17:09;;;;;;;59.92;42.05;;;;;;;17.03;93.07;102671.34;5021457;28;20029;-66
2022/07/09 06:19:35;;;;;;;62.10;42.33;;;;;;;17.15;92.72;102670.59;5022369;28;20021;-66
2022/07/09 06:22:00;;;;;;;62.00;42.72;;;;;;;17.18;92.25;102672.88;5022754;28;20327;-66
2022/07/09 06:24:26;;;;;;;62.40;43.17;;;;;;;17.20;91.69;102671.59;5022181;28;20049;-67
2022/07/09 06:26:51;;;;;;;59.95;42.20;;;;;;;17.27;92.65;102671.50;5022508;28;20021;-68
2022/07/09 06:29:17;;;;;;;62.50;41.97;;;;;;;17.25;91.83;102674.53;5025940;28;20555;-67
2022/07/09 06:31:42;;;;;;;62.40;43.95;;;;;;;17.36;92.19;102682.06;5024159;28;20396;-66
2022/07/09 06:34:07;;;;;;;63.10;42.78;;;;;;;17.48;91.98;102676.59;5024060;28;20033;-66
2022/07/09 06:36:33;;;;;;;59.05;43.42;;;;;;;17.64;90.97;102672.34;5026631;28;20029;-66
2022/07/09 06:41:42;;;;;;;61.28;41.55;;;;;;;18.07;89.59;102672.19;5025149;28;20079;-67
2022/07/09 06:44:07;;;;;;;54.50;40.70;;;;;;;18.21;88.51;102667.28;5027205;28;20057;-67
2022/07/09 06:46:32;;;;;;;56.85;39.33;;;;;;;18.31;87.55;102666.72;5026896;28;20075;-67
2022/07/09 06:48:57;;;;;;;55.78;39.30;;;;;;;18.37;87.93;102660.19;5036666;28;20061;-67
2022/07/09 06:51:23;;;;;;;55.90;39.85;;;;;;;18.32;86.65;102666.47;5047125;28;20021;-66
2022/07/09 06:53:48;;;;;;;52.22;38.00;;;;;;;18.42;87.88;102665.88;5024852;28;20037;-67
2022/07/09 06:56:13;;;;;;;55.20;37.75;;;;;;;18.44;87.24;102666.47;5025479;28;20475;-67
2022/07/09 06:58:39;;;;;;;51.53;36.80;;;;;;;18.46;86.49;102671.84;5027188;28;20083;-67
2022/07/09 07:01:04;;;;;;;55.03;38.55;;;;;;;18.58;87.24;102665.19;5026367;28;20357;-67
2022/07/09 07:03:29;;;;;;;48.63;31.33;;;;;;;18.72;86.30;102660.28;5027119;28;20065;-66
2022/07/09 07:05:54;;;;;;;50.35;33.00;;;;;;;18.79;85.17;102657.34;5026697;28;20033;-67
2022/07/09 07:08:20;;;;;;;46.57;33.67;;;;;;;18.86;85.68;102660.88;5026356;28;20025;-67
2022/07/09 07:10:45;;;;;;;45.78;32.90;;;;;;;18.95;85.85;102667.75;5022442;28;20296;-68
2022/07/09 07:13:10;;;;;;;46.88;33.20;;;;;;;19.00;84.83;102664.25;5023909;28;20528;-66
2022/07/09 07:15:36;;;;;;;45.45;31.48;;;;;;;19.08;84.08;102661.94;5024141;28;20017;-66
2022/07/09 07:18:01;;;;;;;42.17;29.67;;;;;;;19.20;82.82;102659.16;5045422;28;20017;-66
2022/07/09 07:20:26;;;;;;;44.28;29.95;;;;;;;19.36;84.17;102663.09;5045450;28;20064;-66
2022/07/09 07:22:52;;;;;;;41.92;28.38;;;;;;;19.49;81.52;102659.22;5044174;28;20025;-67
2022/07/09 07:25:17;;;;;;;41.30;29.13;;;;;;;19.71;81.20;102665.84;5023616;28;20024;-67
2022/07/09 07:27:42;;;;;;;43.20;29.42;;;;;;;19.86;82.36;102668.94;5025769;28;20037;-66
2022/07/09 07:30:08;;;;;;;43.13;31.13;;;;;;;19.78;79.74;102671.28;5025561;28;20110;-66
2022/07/09 07:32:33;;;;;;;39.80;29.50;;;;;;;19.75;81.04;102663.41;5026149;28;20037;-66
2022/07/09 07:34:59;;;;;;;44.53;32.05;;;;;;;19.73;80.02;102666.44;5023858;28;20107;-66
2022/07/09 07:37:24;;;;;;;42.33;29.90;;;;;;;19.75;80.42;102669.81;5026053;28;20021;-66
2022/07/09 07:39:49;;;;;;;41.85;30.80;;;;;;;19.73;80.14;102665.59;5025669;28;20056;-66
2022/07/09 07:42:15;;;;;;;36.00;27.73;;;;;;;19.73;80.28;102669.25;5025016;28;20048;-66
2022/07/09 07:44:41;;;;;;;38.80;27.48;;;;;;;19.75;81.80;102674.56;5023949;28;20025;-66
2022/07/09 07:47:07;;;;;;;31.83;23.80;;;;;;;19.72;79.86;102673.13;5025008;28;20174;-66
2022/07/09 07:49:32;;;;;;;35.22;25.10;;;;;;;19.77;78.51;102673.22;5022231;28;20029;-66
2022/07/09 07:51:57;;;;;;;33.65;24.92;;;;;;;19.98;80.89;102668.06;5021083;28;20080;-66
2022/07/09 07:54:23;;;;;;;34.10;25.63;;;;;;;20.06;79.74;102664.84;5023529;28;20115;-66
2022/07/09 07:56:49;;;;;;;36.30;26.20;;;;;;;20.08;78.90;102671.88;5020932;28;20613;-67
2022/07/09 07:59:15;;;;;;;36.28;25.13;;;;;;;19.99;79.70;102672.53;5017146;28;20506;-67
2022/07/09 08:01:40;;;;;;;36.00;26.23;;;;;;;20.02;80.32;102667.31;5021961;28;20108;-66
2022/07/09 08:04:05;;;;;;;40.03;25.70;;;;;;;20.08;77.75;102665.47;5020127;28;20460;-66
2022/07/09 08:06:31;;;;;;;35.88;25.52;;;;;;;20.16;77.09;102668.66;5018179;28;20304;-66
2022/07/09 08:08:56;;;;;;;36.25;25.63;;;;;;;20.26;76.91;102653.22;5011875;28;20025;-66
2022/07/09 08:11:21;;;;;;;35.20;25.27;;;;;;;20.58;77.83;102650.72;5015108;28;20030;-66
2022/07/09 08:13:46;;;;;;;30.97;25.67;;;;;;;20.85;73.39;102642.50;5017880;28;23173;-67
2022/07/09 08:16:12;;;;;;;34.83;24.30;;;;;;;21.11;75.03;102636.19;5015292;28;20343;-66
2022/07/09 08:18:37;;;;;;;31.70;20.70;;;;;;;21.35;71.06;102634.03;5014122;28;20026;-66
2022/07/09 08:21:02;;;;;;;27.48;22.00;;;;;;;21.41;70.47;102626.53;5017307;28;20519;-66
2022/07/09 08:23:28;;;;;;;42.13;26.95;;;;;;;21.34;71.14;102618.38;5021012;28;20037;-66
2022/07/09 08:25:53;;;;;;;41.35;27.60;;;;;;;21.34;71.64;102625.88;5020079;28;20022;-66
2022/07/09 08:28:18;;;;;;;34.95;25.50;;;;;;;21.49;71.45;102615.75;5018004;28;20439;-66
2022/07/09 08:30:43;;;;;;;36.35;25.65;;;;;;;21.57;71.77;102608.84;5010067;28;20025;-66
2022/07/09 08:33:09;;;;;;;37.87;26.30;;;;;;;21.66;70.97;102615.66;5018570;28;20397;-66
2022/07/09 08:35:34;;;;;;;40.08;26.30;;;;;;;21.60;70.67;102601.91;5018177;28;20322;-66
2022/07/09 08:37:59;;;;;;;35.03;25.60;;;;;;;21.53;69.79;102606.81;5006289;28;20053;-66
2022/07/09 08:40:26;;;;;;;34.83;25.17;;;;;;;21.71;71.12;102615.72;5005174;28;20347;-67
2022/07/09 08:42:53;;;;;;;30.48;23.30;;;;;;;21.78;67.33;102612.69;5007712;28;20033;-67
2022/07/09 08:45:20;;;;;;;33.58;22.33;;;;;;;21.95;68.79;102613.47;5019555;28;20083;-66
2022/07/09 08:47:45;;;;;;;33.63;24.15;;;;;;;21.99;68.12;102613.75;5019866;28;20022;-68
2022/07/09 08:50:11;;;;;;;34.78;24.70;;;;;;;21.87;67.33;102613.09;5006629;28;20026;-66
2022/07/09 08:52:39;;;;;;;32.90;24.02;;;;;;;21.68;69.20;102616.22;5018866;28;20064;-67
2022/07/09 08:55:07;;;;;;;40.08;26.48;;;;;;;21.62;69.26;102610.84;5010940;28;20033;-66
2022/07/09 08:57:32;;;;;;;32.97;26.35;;;;;;;21.42;70.47;102617.03;5015907;28;20445;-66
2022/07/09 08:59:58;;;;;;;37.22;26.42;;;;;;;21.27;71.17;102614.03;5018973;28;20041;-67
2022/07/09 09:02:23;;;;;;;37.97;26.90;;;;;;;21.27;70.58;102623.25;5020120;28;20369;-66
2022/07/09 09:04:48;;;;;;;35.63;26.38;;;;;;;21.30;71.21;102624.69;5017230;28;20226;-67
2022/07/09 09:07:18;;;;;;;37.83;25.92;;;;;;;21.31;72.44;102629.22;5019914;28;20005;-66
2022/07/09 09:09:44;;;;;;;38.75;27.88;;;;;;;21.30;70.71;102624.69;5010118;28;20372;-66
2022/07/09 09:12:10;;;;;;;38.95;26.42;;;;;;;21.24;71.12;102626.59;5007238;28;20045;-66
2022/07/09 09:14:36;;;;;;;34.88;26.63;;;;;;;21.24;70.81;102630.22;5014542;28;20030;-66
2022/07/09 09:17:06;;;;;;;36.10;28.35;;;;;;;21.22;70.41;102628.78;5016388;28;20041;-66
2022/07/09 09:19:31;;;;;;;35.90;24.30;;;;;;;21.19;70.93;102624.56;5017764;28;20507;-66
2022/07/09 09:21:57;;;;;;;35.15;25.85;;;;;;;21.07;70.70;102612.66;5018693;28;20025;-66
2022/07/09 09:24:24;;;;;;;34.53;24.80;;;;;;;20.96;70.79;102622.84;5029141;28;20029;-66
2022/07/09 09:26:50;;;;;;;33.38;23.73;;;;;;;20.89;71.17;102612.97;5007103;28;20342;-66
2022/07/09 09:29:15;;;;;;;34.08;24.15;;;;;;;20.86;71.52;102616.25;5014063;28;20429;-67
2022/07/09 09:31:40;;;;;;;33.00;23.52;;;;;;;20.80;73.00;102617.28;5018833;28;20038;-66
2022/07/09 09:34:08;;;;;;;38.47;28.37;;;;;;;20.72;72.73;102619.41;5015327;28;20030;-66
2022/07/09 09:36:43;;;;;;;;;;;;;;;20.89;72.76;102612.97;5020907;28;20291;-66
2022/07/09 09:39:12;;;;;;;37.85;27.08;;;;;;;20.99;73.19;102611.16;5016929;28;20638;-66
2022/07/09 09:41:37;;;;;;;44.78;28.92;;;;;;;20.99;72.80;102613.94;5008157;28;20030;-66
2022/07/09 09:44:12;;;;;;;43.20;28.35;;;;;;;20.99;72.03;102613.09;5018635;28;20033;-66
2022/07/09 09:46:38;;;;;;;38.75;27.50;;;;;;;20.96;72.53;102613.63;5007511;28;20029;-66
2022/07/09 09:49:08;;;;;;;39.00;27.35;;;;;;;20.91;72.26;102616.34;5038601;28;20042;-66
2022/07/09 09:51:51;;;;;;;37.70;25.92;;;;;;;21.12;73.42;102623.03;5007512;28;20087;-66
2022/07/09 09:54:18;;;;;;;42.88;25.67;;;;;;;21.35;73.29;102608.88;5018437;28;20030;-67
2022/07/09 09:56:44;;;;;;;37.50;25.83;;;;;;;21.97;72.36;102605.63;5019469;28;20029;-66
2022/07/09 09:59:10;;;;;;;35.55;25.83;;;;;;;22.40;67.77;102612.19;5008060;28;20025;-66
2022/07/09 10:01:37;;;;;;;32.20;26.58;;;;;;;22.49;67.86;102606.94;5009980;28;20144;-66
2022/07/09 10:04:03;;;;;;;36.43;26.07;;;;;;;22.39;67.51;102602.13;5013566;28;20081;-66
2022/07/09 10:06:29;;;;;;;34.38;24.38;;;;;;;22.23;68.08;102608.69;5020647;28;20065;-66
2022/07/09 10:08:55;;;;;;;33.10;25.85;;;;;;;21.94;68.72;102608.94;5022267;28;20411;-67
2022/07/09 10:11:21;;;;;;;37.67;27.90;;;;;;;21.71;69.95;102614.88;5022621;28;20021;-67
2022/07/09 10:13:54;;;;;;;36.08;26.27;;;;;;;21.72;71.09;102606.22;5020473;28;20408;-66
2022/07/09 10:16:38;;;;;;;29.58;22.83;;;;;;;22.05;68.73;102606.25;5013219;28;20029;-67
2022/07/09 10:19:04;;;;;;;30.02;21.65;;;;;;;22.27;67.60;102604.25;5020994;28;20066;-66
2022/07/09 10:21:38;;;;;;;30.95;22.73;;;;;;;22.31;68.06;102604.59;5008542;28;20128;-66
2022/07/09 10:24:05;;;;;;;29.92;22.23;;;;;;;22.23;68.18;102600.31;5017711;28;20032;-66
2022/07/09 10:26:46;;;;;;;28.38;23.58;;;;;;;22.12;68.54;102601.34;5018119;28;20036;-66
2022/07/09 10:29:26;;;;;;;36.70;23.10;;;;;;;22.21;69.55;102608.97;5014242;28;20067;-66
2022/07/09 10:31:55;;;;;;;32.17;22.27;;;;;;;22.96;66.51;102603.38;5017227;28;20111;-68
2022/07/09 10:34:29;;;;;;;31.15;21.45;;;;;;;23.97;63.96;102594.50;5026441;28;20036;-66
2022/07/09 10:37:03;;;;;;;27.63;19.45;;;;;;;25.32;58.73;102584.50;5015657;28;20057;-66
2022/07/09 10:39:31;;;;;;;22.33;16.52;;;;;;;25.68;55.78;102575.84;5007556;28;20022;-66
2022/07/09 10:42:17;;;;;;;20.33;14.68;;;;;;;26.62;55.62;102578.53;5022129;28;20048;-67
2022/07/09 10:44:42;;;;;;;21.75;13.13;;;;;;;26.94;51.81;102586.34;5027809;28;20383;-66
2022/07/09 10:47:08;;;;;;;17.15;10.80;;;;;;;27.54;52.66;102595.19;5026606;28;20171;-66
2022/07/09 10:49:35;;;;;;;16.10;10.50;;;;;;;27.30;50.61;102595.22;5026841;28;20079;-66
2022/07/09 10:52:01;;;;;;;15.57;9.80;;;;;;;26.82;50.97;102583.94;5026195;28;20025;-66
2022/07/09 10:54:26;;;;;;;15.63;10.05;;;;;;;26.03;51.42;102588.03;5027062;28;20037;-66
2022/07/09 10:56:55;;;;;;;13.38;9.98;;;;;;;25.52;52.98;102585.53;5026077;28;20025;-67
2022/07/09 10:59:22;;;;;;;14.20;10.27;;;;;;;25.15;54.26;102595.25;5022803;28;20029;-66
2022/07/09 11:01:47;;;;;;;13.25;9.07;;;;;;;25.12;55.80;102595.81;5040625;28;20148;-66
2022/07/09 11:04:30;;;;;;;17.55;9.23;;;;;;;24.97;55.50;102593.03;5025773;28;20488;-66
2022/07/09 11:06:55;;;;;;;14.73;8.45;;;;;;;24.56;56.69;102593.97;5025970;28;20067;-66